createdAt,value
2024-03-28T00:03:28.608Z,7.90
2024-03-28T00:06:16.730Z,8.40
2024-03-28T00:09:04.672Z,6.70
2024-03-28T00:11:55.348Z,6.40
2024-03-28T00:14:43.518Z,7.70
2024-03-28T00:17:33.483Z,11.00
2024-03-28T00:20:21.277Z,6.80
2024-03-28T00:23:09.143Z,11.80
2024-03-28T00:25:59.747Z,7.30
2024-03-28T00:31:35.452Z,6.90
2024-03-28T00:34:23.249Z,6.60
2024-03-28T00:37:10.915Z,8.00
2024-03-28T00:39:59.376Z,6.20
2024-03-28T00:42:46.905Z,7.30
2024-03-28T00:45:34.827Z,7.60
2024-03-28T00:48:22.871Z,8.50
2024-03-28T00:51:10.597Z,6.70
2024-03-28T00:53:58.625Z,9.40
2024-03-28T00:56:46.783Z,10.20
2024-03-28T00:59:34.548Z,8.30
2024-03-28T01:02:22.496Z,7.10
2024-03-28T01:05:10.218Z,9.00
2024-03-28T01:07:58.278Z,13.90
2024-03-28T01:10:46.098Z,11.00
2024-03-28T01:13:33.842Z,11.60
2024-03-28T01:16:21.712Z,7.60
2024-03-28T01:19:09.506Z,8.70
2024-03-28T01:21:57.535Z,9.40
2024-03-28T01:24:45.389Z,11.40
2024-03-28T01:27:35.727Z,9.00
2024-03-28T01:30:23.649Z,10.10
2024-03-28T01:33:11.102Z,11.90
2024-03-28T01:36:00.277Z,9.30
2024-03-28T01:38:48.539Z,12.30
2024-03-28T01:41:36.712Z,6.60
2024-03-28T01:44:25.241Z,7.80
2024-03-28T01:47:35.004Z,6.30
2024-03-28T01:50:23.357Z,8.70
2024-03-28T01:53:11.624Z,8.60
2024-03-28T01:55:59.624Z,5.50
2024-03-28T01:58:47.406Z,8.00
2024-03-28T02:01:39.837Z,10.00
2024-03-28T02:04:27.588Z,9.20
2024-03-28T02:07:15.359Z,8.50
2024-03-28T02:10:03.969Z,13.20
2024-03-28T02:12:51.573Z,11.90
2024-03-28T02:15:39.604Z,8.90
2024-03-28T02:18:27.738Z,12.10
2024-03-28T02:21:15.961Z,7.10
2024-03-28T02:24:03.773Z,10.50
2024-03-28T02:26:51.878Z,7.30
2024-03-28T02:29:39.507Z,8.70
2024-03-28T02:32:28.005Z,7.90
2024-03-28T02:35:16.031Z,8.90
2024-03-28T02:38:03.813Z,7.30
2024-03-28T02:40:52.493Z,13.60
2024-03-28T02:43:40.336Z,5.20
2024-03-28T02:46:28.275Z,8.70
2024-03-28T02:49:16.027Z,10.20
2024-03-28T02:52:04.153Z,5.90
2024-03-28T02:54:51.927Z,12.90
2024-03-28T02:57:40.033Z,10.00
2024-03-28T03:00:27.860Z,9.80
2024-03-28T03:03:15.504Z,8.10
2024-03-28T03:06:03.766Z,8.10
2024-03-28T03:08:51.927Z,8.20
2024-03-28T03:11:40.456Z,14.70
2024-03-28T03:14:29.781Z,10.20
2024-03-28T03:17:17.555Z,11.00
2024-03-28T03:20:09.579Z,11.90
2024-03-28T03:23:06.454Z,13.30
2024-03-28T03:26:01.137Z,11.40
2024-03-28T03:29:07.616Z,10.80
2024-03-28T03:32:14.137Z,12.80
2024-03-28T03:35:01.986Z,10.20
2024-03-28T03:37:50.177Z,10.50
2024-03-28T03:40:38.377Z,14.80
2024-03-28T03:43:26.254Z,19.90
2024-03-28T03:46:14.044Z,12.30
2024-03-28T03:49:01.748Z,11.80
2024-03-28T03:51:50.202Z,11.30
2024-03-28T03:54:44.487Z,14.10
2024-03-28T03:57:32.327Z,11.50
2024-03-28T04:00:19.840Z,12.40
2024-03-28T04:03:07.878Z,16.50
2024-03-28T04:05:55.635Z,13.30
2024-03-28T04:08:43.670Z,20.60
2024-03-28T04:11:32.307Z,20.40
2024-03-28T04:14:20.190Z,21.70
2024-03-28T04:17:08.164Z,21.80
2024-03-28T04:19:55.958Z,20.00
2024-03-28T04:22:43.698Z,19.50
2024-03-28T04:25:32.639Z,17.00
2024-03-28T04:28:20.295Z,20.40
2024-03-28T04:31:08.049Z,16.00
2024-03-28T04:33:56.132Z,15.00
2024-03-28T04:36:44.763Z,17.70
2024-03-28T04:39:32.623Z,18.20
2024-03-28T04:42:20.269Z,21.30
2024-03-28T04:45:10.050Z,20.80
2024-03-28T04:47:58.490Z,20.90
2024-03-28T04:50:46.868Z,18.20
2024-03-28T04:53:35.396Z,21.80
2024-03-28T04:56:23.260Z,26.00
2024-03-28T04:59:10.969Z,24.40
2024-03-28T05:01:58.613Z,26.40
2024-03-28T05:04:46.516Z,20.30
2024-03-28T05:07:34.273Z,27.10
2024-03-28T05:10:22.223Z,16.30
2024-03-28T05:13:10.082Z,46.60
2024-03-28T05:15:57.940Z,29.80
2024-03-28T05:18:46.135Z,30.30
2024-03-28T05:21:33.769Z,32.50
2024-03-28T05:24:21.626Z,32.30
2024-03-28T05:27:09.342Z,27.60
2024-03-28T05:29:57.023Z,45.10
2024-03-28T05:32:44.809Z,23.90
2024-03-28T05:35:32.971Z,31.70
2024-03-28T05:38:20.537Z,27.40
2024-03-28T05:41:08.247Z,25.80
2024-03-28T05:43:56.168Z,29.20
2024-03-28T05:46:43.893Z,27.20
2024-03-28T05:49:32.036Z,29.00
2024-03-28T05:52:19.903Z,38.30
2024-03-28T05:55:08.772Z,23.10
2024-03-28T05:57:56.296Z,24.20
2024-03-28T06:00:44.133Z,33.40
2024-03-28T06:03:32.168Z,22.60
2024-03-28T06:06:20.215Z,26.60
2024-03-28T06:09:10.075Z,23.90
2024-03-28T06:11:58.223Z,24.20
2024-03-28T06:14:45.984Z,30.30
2024-03-28T06:17:33.877Z,24.00
2024-03-28T06:20:21.763Z,24.70
2024-03-28T06:23:09.494Z,26.10
2024-03-28T06:26:02.834Z,37.10
2024-03-28T06:28:50.968Z,31.40
2024-03-28T06:31:41.406Z,21.20
2024-03-28T06:34:28.925Z,37.30
2024-03-28T06:37:20.204Z,22.40
2024-03-28T06:40:09.225Z,18.40
2024-03-28T06:42:57.224Z,24.70
2024-03-28T06:45:45.267Z,24.40
2024-03-28T06:48:32.917Z,18.90
2024-03-28T06:51:20.786Z,17.10
2024-03-28T06:54:08.971Z,21.80
2024-03-28T06:56:56.735Z,14.80
2024-03-28T06:59:44.673Z,13.80
2024-03-28T07:02:32.327Z,28.90
2024-03-28T07:05:20.230Z,17.60
2024-03-28T07:08:08.168Z,11.10
2024-03-28T07:10:56.443Z,7.10
2024-03-28T07:13:44.988Z,10.80
2024-03-28T07:16:33.872Z,10.20
2024-03-28T07:19:21.597Z,9.80
2024-03-28T07:22:09.708Z,7.70
2024-03-28T07:24:58.066Z,5.70
2024-03-28T07:27:46.099Z,7.20
2024-03-28T07:30:33.818Z,4.30
2024-03-28T07:33:21.911Z,8.80
2024-03-28T07:36:10.263Z,7.80
2024-03-28T07:38:58.267Z,5.80
2024-03-28T07:41:46.005Z,5.70
2024-03-28T07:44:33.591Z,5.30
2024-03-28T07:47:21.365Z,3.70
2024-03-28T07:50:10.030Z,8.30
2024-03-28T07:52:57.992Z,2.20
2024-03-28T07:55:45.739Z,5.70
2024-03-28T07:58:33.238Z,4.80
2024-03-28T08:01:21.021Z,3.40
2024-03-28T08:04:09.029Z,2.40
2024-03-28T08:06:59.494Z,1.70
2024-03-28T08:09:49.391Z,4.20
2024-03-28T08:12:40.758Z,2.90
2024-03-28T08:15:28.561Z,2.20
2024-03-28T08:18:18.050Z,2.20
2024-03-28T08:21:06.118Z,3.50
2024-03-28T08:23:54.106Z,4.60
2024-03-28T08:26:42.780Z,5.90
2024-03-28T08:29:31.117Z,2.60
2024-03-28T08:32:18.951Z,4.10
2024-03-28T08:35:07.740Z,2.10
2024-03-28T08:37:56.068Z,3.10
2024-03-28T08:40:44.100Z,3.00
2024-03-28T08:43:32.148Z,2.40
2024-03-28T08:46:20.051Z,3.50
2024-03-28T08:49:10.827Z,5.50
2024-03-28T08:51:59.851Z,10.10
2024-03-28T08:54:47.587Z,7.90
2024-03-28T08:57:35.927Z,3.80
2024-03-28T09:00:26.579Z,3.20
2024-03-28T09:03:14.717Z,7.80
2024-03-28T09:06:04.725Z,2.50
2024-03-28T09:08:52.547Z,2.40
2024-03-28T09:11:40.546Z,2.20
2024-03-28T09:14:28.313Z,3.40
2024-03-28T09:17:16.349Z,2.70
2024-03-28T09:20:08.359Z,4.10
2024-03-28T09:22:56.529Z,1.20
2024-03-28T09:25:44.636Z,2.80
2024-03-28T09:28:32.637Z,2.10
2024-03-28T09:31:21.244Z,1.20
2024-03-28T09:34:08.554Z,0.50
2024-03-28T09:36:56.199Z,1.60
2024-03-28T09:39:49.311Z,2.30
2024-03-28T09:42:38.460Z,2.60
2024-03-28T09:45:28.612Z,1.90
2024-03-28T09:48:17.073Z,5.00
2024-03-28T09:51:07.425Z,3.90
2024-03-28T09:53:59.937Z,3.10
2024-03-28T09:56:48.704Z,2.00
2024-03-28T09:59:36.610Z,1.70
2024-03-28T10:02:54.780Z,4.20
2024-03-28T10:05:42.231Z,1.80
2024-03-28T10:08:31.698Z,1.00
2024-03-28T10:11:19.498Z,2.30
2024-03-28T10:14:28.124Z,1.00
2024-03-28T10:17:18.037Z,1.10
2024-03-28T10:20:08.718Z,0.70
2024-03-28T10:22:57.477Z,0.90
2024-03-28T10:25:45.617Z,7.80
2024-03-28T10:28:37.012Z,1.10
2024-03-28T10:31:26.923Z,1.20
2024-03-28T10:34:18.970Z,1.00
2024-03-28T10:37:07.227Z,2.60
2024-03-28T10:39:55.176Z,1.90
2024-03-28T10:42:46.473Z,1.20
2024-03-28T10:45:39.886Z,0.70
2024-03-28T10:48:30.873Z,0.80
2024-03-28T10:51:41.321Z,5.40
2024-03-28T10:54:41.652Z,1.80
2024-03-28T10:57:30.195Z,3.20
2024-03-28T11:00:18.570Z,1.40
2024-03-28T11:03:09.962Z,2.30
2024-03-28T11:06:02.105Z,1.70
2024-03-28T11:08:50.479Z,0.90
2024-03-28T11:11:38.826Z,1.10
2024-03-28T11:14:27.682Z,0.70
2024-03-28T11:17:15.835Z,0.50
2024-03-28T11:20:09.775Z,0.40
2024-03-28T11:23:05.302Z,0.20
2024-03-28T11:26:07.576Z,0.90
2024-03-28T11:29:02.587Z,0.70
2024-03-28T11:31:58.835Z,0.60
2024-03-28T11:37:34.288Z,0.70
2024-03-28T11:40:21.989Z,0.50
2024-03-28T11:43:14.229Z,0.70
2024-03-28T11:46:04.688Z,2.10
2024-03-28T11:48:56.927Z,0.40
2024-03-28T11:51:45.691Z,1.20
2024-03-28T11:54:33.537Z,0.40
2024-03-28T11:57:21.265Z,0.80
2024-03-28T12:00:09.886Z,0.50
2024-03-28T12:02:58.750Z,0.60
2024-03-28T12:05:50.383Z,0.40
2024-03-28T12:08:42.795Z,1.20
2024-03-28T12:11:31.096Z,0.90
2024-03-28T12:14:22.493Z,0.50
2024-03-28T12:17:09.860Z,1.20
2024-03-28T12:20:09.800Z,0.70
2024-03-28T12:23:04.522Z,0.70
2024-03-28T12:25:52.726Z,0.20
2024-03-28T12:28:47.793Z,1.20
2024-03-28T12:31:35.590Z,0.90
2024-03-28T12:34:23.459Z,0.70
2024-03-28T12:37:11.037Z,0.30
2024-03-28T12:40:10.385Z,0.50
2024-03-28T12:42:58.438Z,0.50
2024-03-28T12:45:46.362Z,0.80
2024-03-28T12:48:33.854Z,2.70
2024-03-28T12:51:21.580Z,0.70
2024-03-28T12:54:09.183Z,0.90
2024-03-28T12:56:56.910Z,0.30
2024-03-28T12:59:44.718Z,0.90
2024-03-28T13:02:32.842Z,0.90
2024-03-28T13:05:20.933Z,1.00
2024-03-28T13:08:08.873Z,0.40
2024-03-28T13:10:56.399Z,0.70
2024-03-28T13:13:44.449Z,1.60
2024-03-28T13:16:32.594Z,0.40
2024-03-28T13:19:20.261Z,1.30
2024-03-28T13:22:08.308Z,0.30
2024-03-28T13:24:56.440Z,1.80
2024-03-28T13:27:45.268Z,1.60
2024-03-28T13:30:33.549Z,3.00
2024-03-28T13:33:21.663Z,0.70
2024-03-28T13:36:10.254Z,1.30
2024-03-28T13:38:58.715Z,1.00
2024-03-28T13:41:46.220Z,2.40
2024-03-28T13:44:34.332Z,0.30
2024-03-28T13:47:22.482Z,2.50
2024-03-28T13:50:11.352Z,0.80
2024-03-28T13:52:59.106Z,0.20
2024-03-28T13:55:48.091Z,1.20
2024-03-28T13:58:35.723Z,0.40
2024-03-28T14:01:23.438Z,0.40
2024-03-28T14:04:11.774Z,0.90
2024-03-28T14:06:59.831Z,0.90
2024-03-28T14:09:49.896Z,3.00
2024-03-28T14:12:39.818Z,0.40
2024-03-28T14:15:27.615Z,1.60
2024-03-28T14:18:15.453Z,1.40
2024-03-28T14:21:04.724Z,1.50
2024-03-28T14:23:53.471Z,0.70
2024-03-28T14:26:41.135Z,1.00
2024-03-28T14:29:28.619Z,0.10
2024-03-28T14:32:16.410Z,2.40
2024-03-28T14:35:05.790Z,0.70
2024-03-28T14:37:53.193Z,0.30
2024-03-28T14:40:42.712Z,0.50
2024-03-28T14:43:30.825Z,0.70
2024-03-28T14:46:18.760Z,2.30
2024-03-28T14:49:05.998Z,1.80
2024-03-28T14:51:54.992Z,0.50
2024-03-28T14:54:48.397Z,1.40
2024-03-28T14:57:36.128Z,0.40
2024-03-28T15:00:26.128Z,1.70
2024-03-28T15:03:15.388Z,0.60
2024-03-28T15:06:04.054Z,1.10
2024-03-28T15:08:52.090Z,1.40
2024-03-28T15:11:40.229Z,2.00
2024-03-28T15:14:28.391Z,0.20
2024-03-28T15:17:16.213Z,0.70
2024-03-28T15:20:06.442Z,0.80
2024-03-28T15:25:44.466Z,1.50
2024-03-28T15:28:33.007Z,1.10
2024-03-28T15:31:23.287Z,0.50
2024-03-28T15:34:11.328Z,0.50
2024-03-28T15:36:59.372Z,0.80
2024-03-28T15:39:47.127Z,1.60
2024-03-28T15:42:35.676Z,1.00
2024-03-28T15:45:23.997Z,0.50
2024-03-28T15:48:12.180Z,0.30
2024-03-28T15:51:00.202Z,2.00
2024-03-28T15:53:48.032Z,0.70
2024-03-28T15:56:35.717Z,0.80
2024-03-28T15:59:23.325Z,1.20
2024-03-28T16:02:11.579Z,1.60
2024-03-28T16:04:59.801Z,0.70
2024-03-28T16:07:47.637Z,1.40
2024-03-28T16:10:35.898Z,1.40
2024-03-28T16:13:23.732Z,0.50
2024-03-28T16:16:11.502Z,0.90
2024-03-28T16:18:59.501Z,3.90
2024-03-28T16:21:47.088Z,1.80
2024-03-28T16:24:34.856Z,1.10
2024-03-28T16:27:23.426Z,2.20
2024-03-28T16:30:13.301Z,0.70
2024-03-28T16:33:01.011Z,2.70
2024-03-28T16:35:56.240Z,3.30
2024-03-28T16:38:44.780Z,0.70
2024-03-28T16:41:34.311Z,1.10
2024-03-28T16:44:21.837Z,1.10
2024-03-28T16:47:10.008Z,1.20
2024-03-28T16:49:58.138Z,2.40
2024-03-28T16:52:46.518Z,1.40
2024-03-28T16:55:34.786Z,1.90
2024-03-28T16:58:23.416Z,1.00
2024-03-28T17:01:11.200Z,1.00
2024-03-28T17:04:01.123Z,1.60
2024-03-28T17:06:48.674Z,1.30
2024-03-28T17:09:36.533Z,0.90
2024-03-28T17:12:24.276Z,1.60
2024-03-28T17:15:12.147Z,1.80
2024-03-28T17:18:00.105Z,2.20
2024-03-28T17:20:47.579Z,1.20
2024-03-28T17:23:36.363Z,1.70
2024-03-28T17:26:24.143Z,2.30
2024-03-28T17:29:12.043Z,4.40
2024-03-28T17:31:59.739Z,5.20
2024-03-28T17:34:49.864Z,4.40
2024-03-28T17:37:37.564Z,4.80
2024-03-28T17:40:25.576Z,7.60
2024-03-28T17:43:13.781Z,19.60
2024-03-28T17:46:03.639Z,12.90
2024-03-28T17:48:52.019Z,10.40
2024-03-28T17:51:40.060Z,10.90
2024-03-28T17:54:27.796Z,17.60
2024-03-28T17:57:17.163Z,72.30
2024-03-28T18:00:06.879Z,66.80
2024-03-28T18:02:54.619Z,44.30
2024-03-28T18:05:43.439Z,133.40
2024-03-28T18:08:31.487Z,15.30
2024-03-28T18:11:20.037Z,26.10
2024-03-28T18:14:09.665Z,103.10
2024-03-28T18:16:57.594Z,41.50
2024-03-28T18:19:45.725Z,34.30
2024-03-28T18:22:33.921Z,21.20
2024-03-28T18:25:21.397Z,20.80
2024-03-28T18:28:09.289Z,16.90
2024-03-28T18:30:57.157Z,17.60
2024-03-28T18:33:46.217Z,20.20
2024-03-28T18:36:34.978Z,12.80
2024-03-28T18:39:22.479Z,20.60
2024-03-28T18:42:10.158Z,29.50
2024-03-28T18:44:59.598Z,19.70
2024-03-28T18:47:47.527Z,25.00
2024-03-28T18:50:40.832Z,34.40
2024-03-28T18:53:30.370Z,28.80
2024-03-28T18:56:20.567Z,31.60
2024-03-28T18:59:12.192Z,24.80
2024-03-28T19:02:00.236Z,30.40
2024-03-28T19:04:47.795Z,15.00
2024-03-28T19:07:35.635Z,33.60
2024-03-28T19:10:23.447Z,30.20
2024-03-28T19:13:11.325Z,24.60
2024-03-28T19:15:58.898Z,22.80
2024-03-28T19:18:47.254Z,30.60
2024-03-28T19:21:35.303Z,29.10
2024-03-28T19:24:22.708Z,21.00
2024-03-28T19:27:10.663Z,13.20
2024-03-28T19:30:01.008Z,17.70
2024-03-28T19:32:53.233Z,17.90
2024-03-28T19:35:41.858Z,12.70
2024-03-28T19:38:29.784Z,13.20
2024-03-28T19:41:20.191Z,13.40
2024-03-28T19:44:08.176Z,6.60
2024-03-28T19:46:56.866Z,8.00
2024-03-28T19:49:45.149Z,10.70
2024-03-28T19:52:33.781Z,24.10
2024-03-28T19:55:21.736Z,16.30
2024-03-28T19:58:09.813Z,31.90
2024-03-28T20:00:58.230Z,10.40
2024-03-28T20:03:46.620Z,5.60
2024-03-28T20:06:35.129Z,5.20
2024-03-28T20:09:23.199Z,5.00
2024-03-28T20:12:10.909Z,3.20
2024-03-28T20:15:01.752Z,2.90
2024-03-28T20:17:49.783Z,2.40
2024-03-28T20:20:37.494Z,4.50
2024-03-28T20:23:25.328Z,3.20
2024-03-28T20:26:13.089Z,15.80
2024-03-28T20:29:01.234Z,3.00
2024-03-28T20:31:49.286Z,4.50
2024-03-28T20:34:38.020Z,4.60
2024-03-28T20:37:26.578Z,8.80
2024-03-28T20:40:14.734Z,3.70
2024-03-28T20:43:02.988Z,12.70
2024-03-28T20:45:50.804Z,7.00
2024-03-28T20:48:38.861Z,6.80
2024-03-28T20:51:26.771Z,5.60
2024-03-28T20:54:15.106Z,6.60
2024-03-28T20:57:06.369Z,5.00
2024-03-28T20:59:54.638Z,3.60
2024-03-28T21:02:42.777Z,5.30
2024-03-28T21:05:30.821Z,8.00
2024-03-28T21:08:37.504Z,6.20
2024-03-28T21:11:27.751Z,4.50
2024-03-28T21:14:15.451Z,13.60
2024-03-28T21:17:03.565Z,24.50
2024-03-28T21:19:51.811Z,22.10
2024-03-28T21:22:39.843Z,25.30
2024-03-28T21:25:27.703Z,22.80
2024-03-28T21:28:15.716Z,5.50
2024-03-28T21:31:04.349Z,10.10
2024-03-28T21:33:53.619Z,8.30
2024-03-28T21:36:42.091Z,13.30
2024-03-28T21:39:30.442Z,11.50
2024-03-28T21:42:18.163Z,4.90
2024-03-28T21:45:13.942Z,6.10
2024-03-28T21:48:03.068Z,2.20
2024-03-28T21:50:50.999Z,2.50
2024-03-28T21:53:39.456Z,3.20
2024-03-28T21:56:28.508Z,6.50
2024-03-28T21:59:16.266Z,6.30
2024-03-28T22:02:04.579Z,4.10
2024-03-28T22:04:52.326Z,5.00
2024-03-28T22:07:40.178Z,4.30
2024-03-28T22:10:28.403Z,11.10
2024-03-28T22:13:16.775Z,5.90
2024-03-28T22:16:07.488Z,7.40
2024-03-28T22:18:56.424Z,5.20
2024-03-28T22:21:44.353Z,4.10
2024-03-28T22:24:32.118Z,4.70
2024-03-28T22:27:19.960Z,3.50
2024-03-28T22:30:08.601Z,4.10
2024-03-28T22:32:56.181Z,2.40
2024-03-28T22:35:45.569Z,2.60
2024-03-28T22:38:33.629Z,2.40
2024-03-28T22:41:21.688Z,1.50
2024-03-28T22:44:09.407Z,4.50
2024-03-28T22:46:56.876Z,5.50
2024-03-28T22:49:45.626Z,14.70
2024-03-28T22:52:33.561Z,6.20
2024-03-28T22:55:21.793Z,8.70
2024-03-28T22:58:09.513Z,5.90
2024-03-28T23:00:58.093Z,8.00
2024-03-28T23:03:46.028Z,3.30
2024-03-28T23:06:33.764Z,4.00
2024-03-28T23:09:21.398Z,4.60
2024-03-28T23:12:09.185Z,3.50
2024-03-28T23:14:56.656Z,2.50
2024-03-28T23:17:44.676Z,4.60
2024-03-28T23:20:32.627Z,3.10
2024-03-28T23:23:20.663Z,2.50
2024-03-28T23:26:08.629Z,4.60
2024-03-28T23:28:56.655Z,3.00
2024-03-28T23:31:44.615Z,3.50
2024-03-28T23:34:32.726Z,4.70
2024-03-28T23:37:20.494Z,2.70
2024-03-28T23:40:09.213Z,1.70
2024-03-28T23:42:56.739Z,1.50
2024-03-28T23:45:51.953Z,2.80
2024-03-28T23:48:39.291Z,2.00
2024-03-28T23:51:26.735Z,2.10
2024-03-28T23:54:14.548Z,2.70
2024-03-28T23:57:02.215Z,0.80
2024-03-28T23:59:51.144Z,1.50
